Time;durP1;ratioP1;P1;durP2;ratioP2;P2;SDS_P1;SDS_P2;PMS_P1;PMS_P2;Temp;Humidity;BMP_temperature;BMP_pressure;BME280_temperature;BME280_humidity;BME280_pressure;Samples;Min_cycle;Max_cycle;Signal;HPM_P1;HPM_P2
2022/04/29 00:00:04;;;;;;;;;24.75;23.75;;;;;;;;5053030;28;45321;-78
2022/04/29 00:02:29;;;;;;;;;29.25;26.00;;;;;;;;5054564;28;46713;-78
2022/04/29 00:04:54;;;;;;;;;26.50;24.25;;;;;;;;5053667;28;45327;-78
2022/04/29 00:07:19;;;;;;;;;30.75;30.00;;;;;;;;5055645;28;45213;-77
2022/04/29 00:09:44;;;;;;;;;30.25;28.00;;;;;;;;5055347;28;45518;-78
2022/04/29 00:12:10;;;;;;;;;26.00;24.50;;;;;;;;5058060;28;45742;-78
2022/04/29 00:14:35;;;;;;;;;29.25;28.00;;;;;;;;5055114;28;45276;-77
2022/04/29 00:17:00;;;;;;;;;39.25;31.00;;;;;;;;5058186;28;45235;-77
2022/04/29 00:19:26;;;;;;;;;32.25;27.75;;;;;;;;5066555;28;45296;-77
2022/04/29 00:21:52;;;;;;;;;32.25;28.00;;;;;;;;5082302;27;46095;-77
2022/04/29 00:24:17;;;;;;;;;27.75;24.00;;;;;;;;5056771;28;45430;-77
2022/04/29 00:26:42;;;;;;;;;31.25;28.25;;;;;;;;5054013;28;45434;-77
2022/04/29 00:29:07;;;;;;;;;25.50;25.50;;;;;;;;5093674;27;46411;-77
2022/04/29 00:31:33;;;;;;;;;32.50;28.75;;;;;;;;5057698;28;45410;-77
2022/04/29 00:33:59;;;;;;;;;33.25;29.00;;;;;;;;5060470;28;46346;-77
2022/04/29 00:36:24;;;;;;;;;33.50;31.00;;;;;;;;5056705;28;45401;-77
2022/04/29 00:38:50;;;;;;;;;37.00;32.00;;;;;;;;5061573;28;45310;-77
2022/04/29 00:41:16;;;;;;;;;26.25;23.00;;;;;;;;5055506;28;45342;-77
2022/04/29 00:43:41;;;;;;;;;34.00;29.75;;;;;;;;5062085;28;45291;-78
2022/04/29 00:46:07;;;;;;;;;32.00;29.75;;;;;;;;5055349;28;45222;-77
2022/04/29 00:48:33;;;;;;;;;28.00;25.75;;;;;;;;5061857;28;45242;-77
2022/04/29 00:50:58;;;;;;;;;30.75;27.50;;;;;;;;5055171;28;45226;-77
2022/04/29 00:53:24;;;;;;;;;35.00;32.25;;;;;;;;5061594;28;45459;-76
2022/04/29 00:55:50;;;;;;;;;27.50;25.25;;;;;;;;5055547;28;45392;-77
2022/04/29 00:58:15;;;;;;;;;29.50;25.75;;;;;;;;5062343;28;45395;-76
2022/04/29 01:00:41;;;;;;;;;37.25;33.25;;;;;;;;5056729;28;45256;-77
2022/04/29 01:03:10;;;;;;;;;31.75;28.25;;;;;;;;5057703;28;45457;-77
2022/04/29 01:05:37;;;;;;;;;31.25;30.75;;;;;;;;5057575;28;45297;-77
2022/04/29 01:08:02;;;;;;;;;31.75;29.00;;;;;;;;5063085;28;45307;-77
2022/04/29 01:10:27;;;;;;;;;37.75;32.50;;;;;;;;5058674;28;45518;-76
2022/04/29 01:12:57;;;;;;;;;32.75;29.00;;;;;;;;5060602;28;46308;-77
2022/04/29 01:15:22;;;;;;;;;27.50;26.75;;;;;;;;5054119;28;45525;-77
2022/04/29 01:17:48;;;;;;;;;33.00;28.50;;;;;;;;5057199;28;45247;-77
2022/04/29 01:20:15;;;;;;;;;34.00;31.25;;;;;;;;5056257;28;45534;-77
2022/04/29 01:22:44;;;;;;;;;29.50;29.00;;;;;;;;5054671;28;45444;-76
2022/04/29 01:25:09;;;;;;;;;27.25;25.25;;;;;;;;5046607;28;45343;-77
2022/04/29 01:27:34;;;;;;;;;31.50;28.25;;;;;;;;5094096;27;45363;-76
2022/04/29 01:30:06;;;;;;;;;30.75;27.50;;;;;;;;5055304;28;45441;-75
2022/04/29 01:32:32;;;;;;;;;35.25;30.75;;;;;;;;5060995;28;46014;-75
2022/04/29 01:34:58;;;;;;;;;28.50;26.75;;;;;;;;5054663;28;45342;-75
2022/04/29 01:37:23;;;;;;;;;31.25;29.25;;;;;;;;5060485;28;45281;-75
2022/04/29 01:39:48;;;;;;;;;29.50;26.50;;;;;;;;5055320;28;45349;-76
2022/04/29 01:42:13;;;;;;;;;37.50;31.25;;;;;;;;5060411;28;45458;-76
2022/04/29 01:44:39;;;;;;;;;30.25;29.50;;;;;;;;5056750;28;45432;-76
2022/04/29 01:47:04;;;;;;;;;38.00;30.50;;;;;;;;5059201;28;45319;-76
2022/04/29 01:49:29;;;;;;;;;30.00;28.25;;;;;;;;5057679;28;44887;-76
2022/04/29 01:51:55;;;;;;;;;32.75;31.00;;;;;;;;5057360;28;46650;-76
2022/04/29 01:54:20;;;;;;;;;33.75;29.00;;;;;;;;5056153;28;45703;-76
2022/04/29 01:56:47;;;;;;;;;36.50;31.00;;;;;;;;5071154;28;45327;-77
2022/04/29 01:59:13;;;;;;;;;33.25;29.75;;;;;;;;5057549;28;46804;-76
2022/04/29 02:01:38;;;;;;;;;28.75;26.25;;;;;;;;5087038;27;46046;-76
2022/04/29 02:04:04;;;;;;;;;27.00;26.00;;;;;;;;5058933;28;45165;-75
2022/04/29 02:06:29;;;;;;;;;35.25;30.50;;;;;;;;5057222;28;45689;-76
2022/04/29 02:08:54;;;;;;;;;32.25;29.25;;;;;;;;5059947;28;45243;-76
2022/04/29 02:11:23;;;;;;;;;38.00;32.00;;;;;;;;5057290;28;45281;-76
2022/04/29 02:13:49;;;;;;;;;30.50;27.50;;;;;;;;5060768;28;45305;-76
2022/04/29 02:16:14;;;;;;;;;36.00;29.25;;;;;;;;5049878;28;45285;-76
2022/04/29 02:18:40;;;;;;;;;32.50;31.25;;;;;;;;5060450;28;45355;-76
2022/04/29 02:21:05;;;;;;;;;31.25;28.75;;;;;;;;5051217;28;45419;-76
2022/04/29 02:23:30;;;;;;;;;42.50;29.25;;;;;;;;5060619;28;45386;-76
2022/04/29 02:25:57;;;;;;;;;28.00;26.00;;;;;;;;5055060;28;45380;-76
2022/04/29 02:28:23;;;;;;;;;39.25;31.75;;;;;;;;5050323;28;45309;-75
2022/04/29 02:30:48;;;;;;;;;31.50;28.25;;;;;;;;5069164;28;47002;-76
2022/04/29 02:33:13;;;;;;;;;35.00;26.25;;;;;;;;5060222;28;45344;-76
2022/04/29 02:35:38;;;;;;;;;31.00;30.00;;;;;;;;5053864;28;45290;-76
2022/04/29 02:38:03;;;;;;;;;37.50;31.75;;;;;;;;5060115;28;45571;-76
2022/04/29 02:40:29;;;;;;;;;30.25;25.00;;;;;;;;5054052;28;45566;-75
2022/04/29 02:42:54;;;;;;;;;39.50;33.75;;;;;;;;5060150;28;45371;-76
2022/04/29 02:45:19;;;;;;;;;37.25;33.00;;;;;;;;5069150;28;45407;-76
2022/04/29 02:47:44;;;;;;;;;28.75;27.00;;;;;;;;5057699;28;45797;-77
2022/04/29 02:50:10;;;;;;;;;37.75;29.50;;;;;;;;5051804;28;47065;-76
2022/04/29 02:52:35;;;;;;;;;30.00;28.25;;;;;;;;5061392;28;45275;-76
2022/04/29 02:55:00;;;;;;;;;31.50;30.00;;;;;;;;5053662;28;45405;-76
2022/04/29 02:57:26;;;;;;;;;35.25;30.00;;;;;;;;5059821;28;45403;-76
2022/04/29 02:59:51;;;;;;;;;31.75;27.50;;;;;;;;5053545;28;46189;-76
2022/04/29 03:02:17;;;;;;;;;31.50;28.50;;;;;;;;5058475;28;45439;-77
2022/04/29 03:04:42;;;;;;;;;40.75;33.00;;;;;;;;5069231;28;45402;-77
2022/04/29 03:07:07;;;;;;;;;39.25;33.00;;;;;;;;5058713;28;45468;-76
2022/04/29 03:09:32;;;;;;;;;36.75;29.25;;;;;;;;5059263;28;46565;-77
2022/04/29 03:11:57;;;;;;;;;28.00;27.00;;;;;;;;5060802;28;45181;-76
2022/04/29 03:14:23;;;;;;;;;33.25;30.50;;;;;;;;5057617;28;45217;-76
2022/04/29 03:16:48;;;;;;;;;33.00;30.50;;;;;;;;5052613;28;45207;-77
2022/04/29 03:19:13;;;;;;;;;35.50;30.25;;;;;;;;5058855;28;45471;-76
2022/04/29 03:21:38;;;;;;;;;36.50;32.75;;;;;;;;5052522;28;45298;-76
2022/04/29 03:24:04;;;;;;;;;35.50;31.00;;;;;;;;5058481;28;45418;-76
2022/04/29 03:26:29;;;;;;;;;36.00;28.00;;;;;;;;5055337;28;45344;-77
2022/04/29 03:28:54;;;;;;;;;27.75;26.25;;;;;;;;5058623;28;47395;-77
2022/04/29 03:31:20;;;;;;;;;32.25;29.00;;;;;;;;5053859;28;45383;-77
2022/04/29 03:33:45;;;;;;;;;37.50;32.00;;;;;;;;5059391;28;45540;-75
2022/04/29 03:36:10;;;;;;;;;33.50;30.75;;;;;;;;5052839;28;47367;-77
2022/04/29 03:38:36;;;;;;;;;30.75;30.25;;;;;;;;5064878;28;47172;-77
2022/04/29 03:41:02;;;;;;;;;37.00;32.25;;;;;;;;5052776;28;45527;-77
2022/04/29 03:43:28;;;;;;;;;36.50;32.25;;;;;;;;5059587;28;45272;-76
2022/04/29 03:45:53;;;;;;;;;38.50;32.25;;;;;;;;5055250;28;45497;-77
2022/04/29 03:48:18;;;;;;;;;34.75;30.75;;;;;;;;5058992;28;45442;-77
2022/04/29 03:50:43;;;;;;;;;38.75;33.00;;;;;;;;5052183;28;45363;-76
2022/04/29 03:53:09;;;;;;;;;34.00;31.00;;;;;;;;5059416;28;45287;-78
2022/04/29 03:55:35;;;;;;;;;43.25;34.75;;;;;;;;5053023;28;45355;-76
2022/04/29 03:58:03;;;;;;;;;36.50;29.25;;;;;;;;5057579;28;46655;-77
2022/04/29 04:00:31;;;;;;;;;35.25;30.00;;;;;;;;5051243;28;45428;-77
2022/04/29 04:02:56;;;;;;;;;37.25;28.25;;;;;;;;5054682;28;45493;-77
2022/04/29 04:05:23;;;;;;;;;34.50;30.25;;;;;;;;5055206;28;45322;-77
2022/04/29 04:07:48;;;;;;;;;42.75;32.25;;;;;;;;5057177;28;45365;-77
2022/04/29 04:10:13;;;;;;;;;33.75;29.00;;;;;;;;5056564;28;45431;-77
2022/04/29 04:12:46;;;;;;;;;34.75;28.50;;;;;;;;5058502;28;45323;-77
2022/04/29 04:15:13;;;;;;;;;35.75;29.50;;;;;;;;5054163;28;45532;-77
2022/04/29 04:17:38;;;;;;;;;32.25;28.25;;;;;;;;5052549;28;45473;-76
2022/04/29 04:20:04;;;;;;;;;39.50;32.00;;;;;;;;5055036;28;45320;-77
2022/04/29 04:22:30;;;;;;;;;39.25;31.00;;;;;;;;5053169;28;45166;-76
2022/04/29 04:24:57;;;;;;;;;33.75;29.50;;;;;;;;5053201;28;45273;-76
2022/04/29 04:27:23;;;;;;;;;33.00;28.25;;;;;;;;5058472;28;46705;-76
2022/04/29 04:29:48;;;;;;;;;32.75;28.75;;;;;;;;5053306;28;45432;-76
2022/04/29 04:32:13;;;;;;;;;35.00;28.75;;;;;;;;5057880;28;45374;-76
2022/04/29 04:34:51;;;;;;;;;35.00;31.50;;;;;;;;5054557;28;45546;-77
2022/04/29 04:37:20;;;;;;;;;34.50;31.00;;;;;;;;5058347;28;46018;-76
2022/04/29 04:39:45;;;;;;;;;43.75;31.75;;;;;;;;5053503;28;45297;-76
2022/04/29 04:42:11;;;;;;;;;38.00;32.25;;;;;;;;5057592;28;45302;-76
2022/04/29 04:44:36;;;;;;;;;38.75;30.00;;;;;;;;5054767;28;46362;-77
2022/04/29 04:47:02;;;;;;;;;30.50;28.25;;;;;;;;5088655;27;48394;-80
2022/04/29 04:49:27;;;;;;;;;36.00;32.25;;;;;;;;5055049;28;45677;-83
2022/04/29 04:51:52;;;;;;;;;32.25;29.00;;;;;;;;5069532;28;45241;-80
2022/04/29 04:54:18;;;;;;;;;34.75;29.00;;;;;;;;5055425;28;46977;-80
2022/04/29 04:56:43;;;;;;;;;33.75;28.50;;;;;;;;5087091;27;48205;-80
2022/04/29 04:59:08;;;;;;;;;34.50;32.25;;;;;;;;5055200;28;46141;-84
2022/04/29 05:01:33;;;;;;;;;32.25;30.25;;;;;;;;5053571;28;45461;-84
2022/04/29 05:03:58;;;;;;;;;32.75;29.75;;;;;;;;5053084;28;45226;-84
2022/04/29 05:06:24;;;;;;;;;35.00;32.25;;;;;;;;5054039;28;46614;-85
2022/04/29 05:08:49;;;;;;;;;34.50;32.00;;;;;;;;5060842;28;45474;-85
2022/04/29 05:11:14;;;;;;;;;36.50;30.00;;;;;;;;5060783;28;45570;-84
2022/04/29 05:13:39;;;;;;;;;32.75;28.50;;;;;;;;5066397;28;45327;-83
2022/04/29 05:16:05;;;;;;;;;37.00;32.25;;;;;;;;5053504;28;45551;-83
2022/04/29 05:18:30;;;;;;;;;33.50;30.00;;;;;;;;5073928;28;45221;-85
2022/04/29 05:20:55;;;;;;;;;33.00;29.00;;;;;;;;5061642;28;45206;-83
2022/04/29 05:23:20;;;;;;;;;33.50;29.00;;;;;;;;5071587;28;45271;-84
2022/04/29 05:25:46;;;;;;;;;33.00;27.75;;;;;;;;5053568;28;45743;-85
2022/04/29 05:28:11;;;;;;;;;30.75;28.50;;;;;;;;5062158;28;45276;-81
2022/04/29 05:30:37;;;;;;;;;35.00;27.75;;;;;;;;5053615;28;45337;-83
2022/04/29 05:33:02;;;;;;;;;29.50;25.25;;;;;;;;5061752;28;45333;-83
2022/04/29 05:35:28;;;;;;;;;31.50;24.75;;;;;;;;5053783;28;45332;-80
2022/04/29 05:37:53;;;;;;;;;39.00;31.00;;;;;;;;5061381;28;45464;-80
2022/04/29 05:43:03;;;;;;;;;31.75;29.00;;;;;;;;5062332;28;45354;-81
2022/04/29 05:45:28;;;;;;;;;35.00;30.25;;;;;;;;5058840;28;47134;-81
2022/04/29 05:47:53;;;;;;;;;31.75;26.75;;;;;;;;5059839;28;45498;-82
2022/04/29 05:50:19;;;;;;;;;25.50;24.00;;;;;;;;5056427;28;45277;-83
2022/04/29 05:52:44;;;;;;;;;37.00;31.75;;;;;;;;5062048;28;46427;-77
2022/04/29 05:55:09;;;;;;;;;34.75;27.75;;;;;;;;5058949;28;46047;-77
2022/04/29 05:57:34;;;;;;;;;32.75;27.75;;;;;;;;5061714;28;45462;-78
2022/04/29 06:00:00;;;;;;;;;36.75;32.25;;;;;;;;5059430;28;45431;-78
2022/04/29 06:02:26;;;;;;;;;28.50;20.75;;;;;;;;5059499;28;45527;-79
2022/04/29 06:04:51;;;;;;;;;34.50;30.25;;;;;;;;5058987;28;46391;-78
2022/04/29 06:07:16;;;;;;;;;30.00;29.50;;;;;;;;5059834;28;45461;-78
2022/04/29 06:09:42;;;;;;;;;36.00;30.75;;;;;;;;5058199;28;45402;-80
2022/04/29 06:12:07;;;;;;;;;40.75;34.00;;;;;;;;5059650;28;45477;-78
2022/04/29 06:14:34;;;;;;;;;35.00;28.50;;;;;;;;5058164;28;46204;-78
2022/04/29 06:16:59;;;;;;;;;28.00;25.75;;;;;;;;5059956;28;45642;-77
2022/04/29 06:19:24;;;;;;;;;37.50;29.25;;;;;;;;5057565;28;45530;-76
2022/04/29 06:21:49;;;;;;;;;28.00;26.75;;;;;;;;5059290;28;45437;-77
2022/04/29 06:24:15;;;;;;;;;40.25;33.50;;;;;;;;5057873;28;45209;-77
2022/04/29 06:26:40;;;;;;;;;35.25;28.50;;;;;;;;5059280;28;45264;-78
2022/04/29 06:29:05;;;;;;;;;37.50;33.75;;;;;;;;5057341;28;45340;-78
2022/04/29 06:31:31;;;;;;;;;31.50;27.50;;;;;;;;5059524;28;45268;-80
2022/04/29 06:33:56;;;;;;;;;36.00;32.00;;;;;;;;5058802;28;45298;-77
2022/04/29 06:36:21;;;;;;;;;37.00;31.25;;;;;;;;5058108;28;45307;-76
2022/04/29 06:38:47;;;;;;;;;28.50;28.50;;;;;;;;5059179;28;45325;-77
2022/04/29 06:41:12;;;;;;;;;33.25;30.00;;;;;;;;5057927;28;45518;-77
2022/04/29 06:43:37;;;;;;;;;40.75;33.00;;;;;;;;5059205;28;45282;-77
2022/04/29 06:46:02;;;;;;;;;32.25;30.75;;;;;;;;5057679;28;45505;-76
2022/04/29 06:48:27;;;;;;;;;37.00;30.75;;;;;;;;5058775;28;45460;-76
2022/04/29 06:50:53;;;;;;;;;35.00;27.00;;;;;;;;5057124;28;45545;-78
2022/04/29 06:53:18;;;;;;;;;36.50;31.25;;;;;;;;5091371;27;48002;-77
2022/04/29 06:55:43;;;;;;;;;39.50;33.50;;;;;;;;5057432;28;45421;-77
2022/04/29 06:58:08;;;;;;;;;37.00;31.00;;;;;;;;5059041;28;45341;-79
2022/04/29 07:00:34;;;;;;;;;39.00;31.50;;;;;;;;5055472;28;45594;-79
2022/04/29 07:03:02;;;;;;;;;27.75;25.00;;;;;;;;5091342;27;46858;-81
2022/04/29 07:05:30;;;;;;;;;30.00;26.00;;;;;;;;5058713;28;45391;-78
2022/04/29 07:07:55;;;;;;;;;40.75;32.00;;;;;;;;5059332;28;45331;-79
2022/04/29 07:10:21;;;;;;;;;34.25;31.25;;;;;;;;5055564;28;47225;-78
2022/04/29 07:12:49;;;;;;;;;36.50;32.75;;;;;;;;5058421;28;46038;-79
2022/04/29 07:15:15;;;;;;;;;44.00;34.25;;;;;;;;5057215;28;45447;-80
2022/04/29 07:17:40;;;;;;;;;39.00;33.75;;;;;;;;5058507;28;45315;-79
2022/04/29 07:20:06;;;;;;;;;42.75;34.00;;;;;;;;5057870;28;45970;-78
2022/04/29 07:22:32;;;;;;;;;43.50;34.75;;;;;;;;5062363;28;46340;-78
2022/04/29 07:24:58;;;;;;;;;36.75;31.00;;;;;;;;5061460;28;45391;-77
2022/04/29 07:27:23;;;;;;;;;38.25;33.00;;;;;;;;5062637;28;45454;-80
2022/04/29 07:29:48;;;;;;;;;46.25;36.25;;;;;;;;5059406;28;45409;-78
2022/04/29 07:32:14;;;;;;;;;41.25;31.25;;;;;;;;5059402;28;47494;-78
2022/04/29 07:42:52;;;;;;;;;49.75;37.75;;;;;;;;5055777;28;45357;-78
2022/04/29 07:45:18;;;;;;;;;40.00;34.75;;;;;;;;5052112;28;45250;-77
2022/04/29 07:47:43;;;;;;;;;44.75;37.00;;;;;;;;5058840;28;45253;-80
2022/04/29 07:50:08;;;;;;;;;49.00;37.50;;;;;;;;5052088;28;45279;-80
2022/04/29 07:52:34;;;;;;;;;47.50;35.50;;;;;;;;5058608;28;45287;-78
2022/04/29 07:54:59;;;;;;;;;46.00;35.75;;;;;;;;5058174;28;45258;-80
2022/04/29 07:57:25;;;;;;;;;40.75;35.25;;;;;;;;5058600;28;45386;-79
2022/04/29 07:59:50;;;;;;;;;43.00;35.25;;;;;;;;5053489;28;45390;-78
2022/04/29 08:02:15;;;;;;;;;42.25;36.00;;;;;;;;5055462;28;45413;-78
2022/04/29 08:04:40;;;;;;;;;43.25;37.00;;;;;;;;5054264;28;45312;-78
2022/04/29 08:07:06;;;;;;;;;45.50;36.00;;;;;;;;5056505;28;45472;-75
2022/04/29 08:09:31;;;;;;;;;49.25;39.00;;;;;;;;5054185;28;47443;-76
2022/04/29 08:11:56;;;;;;;;;42.00;34.75;;;;;;;;5072327;28;47103;-78
2022/04/29 08:14:22;;;;;;;;;45.75;36.00;;;;;;;;5056026;28;45507;-78
2022/04/29 08:16:48;;;;;;;;;47.75;37.00;;;;;;;;5050273;28;45277;-77
2022/04/29 08:19:14;;;;;;;;;56.25;41.50;;;;;;;;5056651;28;45413;-79
2022/04/29 08:21:39;;;;;;;;;54.50;42.75;;;;;;;;5057378;28;45893;-78
2022/04/29 08:24:04;;;;;;;;;47.00;35.75;;;;;;;;5089351;27;45480;-78
2022/04/29 08:26:29;;;;;;;;;49.00;39.00;;;;;;;;5053074;28;45530;-77
2022/04/29 08:28:55;;;;;;;;;48.75;38.75;;;;;;;;5057439;28;44784;-77
2022/04/29 08:31:21;;;;;;;;;48.50;37.25;;;;;;;;5073084;27;46063;-77
2022/04/29 08:33:46;;;;;;;;;47.50;40.00;;;;;;;;5057825;28;45248;-77
2022/04/29 08:36:11;;;;;;;;;41.75;34.00;;;;;;;;5050951;28;45561;-78
2022/04/29 08:38:37;;;;;;;;;50.25;41.00;;;;;;;;5057999;28;45304;-77
2022/04/29 08:41:03;;;;;;;;;44.50;38.00;;;;;;;;5050980;28;45346;-77
2022/04/29 08:43:31;;;;;;;;;42.25;35.00;;;;;;;;5049293;28;45366;-77
2022/04/29 08:45:56;;;;;;;;;41.25;34.75;;;;;;;;5064811;28;45506;-77
2022/04/29 08:48:22;;;;;;;;;48.00;36.75;;;;;;;;5058185;28;45356;-75
2022/04/29 08:50:47;;;;;;;;;44.00;36.25;;;;;;;;5057809;28;46037;-77
2022/04/29 08:53:12;;;;;;;;;41.75;34.75;;;;;;;;5056274;28;45249;-76
2022/04/29 08:58:38;;;;;;;;;47.75;38.75;;;;;;;;5061383;28;45372;-78
2022/04/29 09:01:05;;;;;;;;;46.75;40.00;;;;;;;;5058714;28;46076;-75
2022/04/29 09:03:30;;;;;;;;;47.00;39.00;;;;;;;;5058644;28;45356;-77
2022/04/29 09:05:55;;;;;;;;;45.75;35.00;;;;;;;;5057075;28;45916;-76
2022/04/29 09:08:22;;;;;;;;;44.75;37.00;;;;;;;;5060455;28;45457;-77
2022/04/29 09:10:58;;;;;;;;;49.00;39.75;;;;;;;;5051976;28;45991;-77
2022/04/29 09:13:28;;;;;;;;;36.25;33.25;;;;;;;;5060305;28;45681;-78
2022/04/29 09:16:01;;;;;;;;;42.33;36.00;;;;;;;;5051273;28;45301;-78
2022/04/29 09:18:32;;;;;;;;;46.50;36.50;;;;;;;;5048050;28;45381;-78
2022/04/29 09:20:57;;;;;;;;;40.50;34.75;;;;;;;;5049900;28;47232;-79
2022/04/29 09:23:27;;;;;;;;;40.33;35.00;;;;;;;;5060621;28;45374;-79
2022/04/29 09:25:52;;;;;;;;;42.75;33.75;;;;;;;;5054375;28;45318;-80
2022/04/29 09:28:17;;;;;;;;;43.00;36.00;;;;;;;;5060846;28;45501;-77
2022/04/29 09:30:42;;;;;;;;;45.00;36.67;;;;;;;;5055223;28;46707;-78
2022/04/29 09:33:18;;;;;;;;;45.75;40.25;;;;;;;;5061428;28;45250;-78
2022/04/29 09:35:43;;;;;;;;;46.33;36.67;;;;;;;;5054397;28;45238;-79
2022/04/29 09:40:54;;;;;;;;;38.33;32.00;;;;;;;;5057753;28;45391;-78
2022/04/29 09:43:40;;;;;;;;;41.00;34.67;;;;;;;;5062640;28;45707;-78
2022/04/29 09:46:12;;;;;;;;;39.00;32.33;;;;;;;;5055929;28;45438;-79
2022/04/29 09:49:17;;;;;;;;;45.33;34.67;;;;;;;;5062654;28;45415;-78
2022/04/29 09:51:43;;;;;;;;;39.67;34.00;;;;;;;;5020364;28;46044;-78
2022/04/29 09:54:17;;;;;;;;;45.67;35.67;;;;;;;;5018449;28;45460;-79
2022/04/29 09:56:46;;;;;;;;;40.33;33.00;;;;;;;;5040316;28;45488;-78
2022/04/29 09:59:12;;;;;;;;;42.33;34.33;;;;;;;;5076905;28;45535;-79
2022/04/29 10:01:37;;;;;;;;;45.00;35.00;;;;;;;;5057755;28;46217;-77
2022/04/29 10:04:03;;;;;;;;;42.33;33.00;;;;;;;;5066108;28;45311;-78
2022/04/29 10:06:29;;;;;;;;;38.00;33.00;;;;;;;;5088309;27;45410;-76
2022/04/29 10:08:56;;;;;;;;;37.67;33.00;;;;;;;;5060456;28;45472;-79
2022/04/29 10:11:22;;;;;;;;;33.67;31.67;;;;;;;;5047866;28;46288;-81
2022/04/29 10:13:48;;;;;;;;;37.33;32.00;;;;;;;;5059712;28;45417;-81
2022/04/29 10:16:15;;;;;;;;;35.33;32.33;;;;;;;;5056146;28;45423;-76
2022/04/29 10:21:28;;;;;;;;;41.33;34.33;;;;;;;;5057893;28;45474;-79
2022/04/29 10:23:53;;;;;;;;;43.00;35.67;;;;;;;;5059439;28;45383;-78
2022/04/29 10:26:22;;;;;;;;;39.67;34.00;;;;;;;;5058124;28;45510;-77
2022/04/29 10:28:48;;;;;;;;;38.00;33.33;;;;;;;;5059728;28;45399;-78
2022/04/29 10:31:18;;;;;;;;;36.67;32.67;;;;;;;;5052318;28;45627;-77
2022/04/29 10:33:44;;;;;;;;;41.00;34.00;;;;;;;;5052440;28;45467;-77
2022/04/29 10:36:10;;;;;;;;;45.67;36.67;;;;;;;;5053456;28;45350;-79
2022/04/29 10:38:39;;;;;;;;;30.00;29.67;;;;;;;;5060870;28;45601;-80
2022/04/29 10:41:15;;;;;;;;;37.67;32.67;;;;;;;;5055522;28;45589;-75
2022/04/29 10:43:46;;;;;;;;;38.33;33.67;;;;;;;;5059764;28;45399;-76
2022/04/29 10:46:13;;;;;;;;;34.33;32.33;;;;;;;;5053498;28;45401;-78
2022/04/29 10:48:39;;;;;;;;;36.67;33.00;;;;;;;;5059067;28;45571;-77
2022/04/29 10:51:30;;;;;;;;;32.67;29.33;;;;;;;;5053145;28;46458;-78
2022/04/29 10:53:59;;;;;;;;;36.00;30.67;;;;;;;;5057757;28;45604;-79
2022/04/29 10:56:30;;;;;;;;;38.00;31.33;;;;;;;;5056770;28;45324;-79
2022/04/29 10:59:10;;;;;;;;;36.33;31.67;;;;;;;;5092189;27;46122;-80
2022/04/29 11:01:36;;;;;;;;;33.67;29.67;;;;;;;;5055594;28;47224;-80
2022/04/29 11:04:10;;;;;;;;;32.33;29.00;;;;;;;;5058498;28;45541;-77
2022/04/29 11:06:36;;;;;;;;;32.33;27.00;;;;;;;;5058174;28;45407;-78
2022/04/29 11:09:01;;;;;;;;;29.00;28.67;;;;;;;;5057578;28;45523;-79
2022/04/29 11:11:43;;;;;;;;;34.67;28.33;;;;;;;;5081293;27;48234;-79
2022/04/29 11:14:10;;;;;;;;;32.67;29.67;;;;;;;;5057652;28;45774;-78
2022/04/29 11:16:49;;;;;;;;;35.33;31.67;;;;;;;;5051483;28;45529;-77
2022/04/29 11:19:19;;;;;;;;;32.33;28.33;;;;;;;;5057512;28;45612;-78
2022/04/29 11:24:42;;;;;;;;;32.00;29.33;;;;;;;;5056995;28;45320;-79
2022/04/29 11:27:07;;;;;;;;;31.00;28.00;;;;;;;;5056069;28;45343;-77
2022/04/29 11:29:40;;;;;;;;;32.00;27.33;;;;;;;;5056265;28;45347;-76
2022/04/29 11:32:05;;;;;;;;;34.00;29.67;;;;;;;;5056103;28;46055;-79
2022/04/29 11:34:31;;;;;;;;;26.33;25.33;;;;;;;;5056384;28;45423;-76
2022/04/29 11:36:56;;;;;;;;;32.33;27.00;;;;;;;;5054417;28;45394;-75
2022/04/29 11:39:22;;;;;;;;;25.33;22.67;;;;;;;;5056843;28;45405;-77
2022/04/29 11:41:54;;;;;;;;;30.33;27.33;;;;;;;;5054537;28;46208;-79
2022/04/29 11:44:45;;;;;;;;;28.67;28.67;;;;;;;;5056792;28;45347;-76
2022/04/29 11:47:11;;;;;;;;;33.00;27.00;;;;;;;;5056441;28;45375;-77
2022/04/29 11:49:37;;;;;;;;;34.33;28.33;;;;;;;;5056580;28;45332;-75
2022/04/29 11:52:22;;;;;;;;;27.67;27.67;;;;;;;;5056563;28;45391;-77
2022/04/29 11:54:53;;;;;;;;;29.67;27.00;;;;;;;;5055379;28;45402;-78
2022/04/29 11:57:19;;;;;;;;;25.33;23.00;;;;;;;;5057836;28;45498;-77
2022/04/29 11:59:45;;;;;;;;;28.00;25.00;;;;;;;;5057448;28;45333;-76
2022/04/29 12:02:10;;;;;;;;;31.67;30.00;;;;;;;;5058564;28;46161;-78
2022/04/29 12:04:36;;;;;;;;;31.67;28.33;;;;;;;;5057849;28;45174;-77
2022/04/29 12:07:03;;;;;;;;;30.67;24.00;;;;;;;;5092148;27;45280;-80
2022/04/29 12:09:31;;;;;;;;;31.00;26.67;;;;;;;;5058479;28;45406;-79
2022/04/29 12:11:58;;;;;;;;;24.00;21.33;;;;;;;;5053412;28;46243;-77
2022/04/29 12:14:23;;;;;;;;;28.00;24.00;;;;;;;;5055590;28;45470;-80
2022/04/29 12:16:49;;;;;;;;;29.00;27.33;;;;;;;;5050749;28;45516;-81
2022/04/29 12:19:15;;;;;;;;;24.00;22.67;;;;;;;;5056187;28;45460;-81
2022/04/29 12:21:51;;;;;;;;;30.67;25.33;;;;;;;;5050608;28;46313;-83
2022/04/29 12:24:17;;;;;;;;;24.67;21.67;;;;;;;;5058409;28;45420;-80
2022/04/29 12:27:00;;;;;;;;;27.67;27.67;;;;;;;;5056858;28;45446;-84
2022/04/29 12:29:29;;;;;;;;;26.67;25.33;;;;;;;;5058683;28;45889;-82
2022/04/29 12:34:51;;;;;;;;;22.67;21.33;;;;;;;;5044052;28;45209;-83
2022/04/29 12:37:19;;;;;;;;;26.00;26.00;;;;;;;;5061818;28;45383;-84
2022/04/29 12:39:46;;;;;;;;;26.33;24.00;;;;;;;;5058173;28;45426;-83
2022/04/29 12:42:13;;;;;;;;;22.00;20.33;;;;;;;;5058164;28;46122;-86
2022/04/29 12:45:07;;;;;;;;;21.00;20.33;;;;;;;;5058006;28;45346;-86
2022/04/29 12:47:33;;;;;;;;;20.50;18.50;;;;;;;;5061965;28;45277;-88
2022/04/29 12:50:19;;;;;;;;;21.00;17.75;;;;;;;;5056007;28;45239;-82
2022/04/29 12:52:48;;;;;;;;;18.00;18.00;;;;;;;;5049620;28;47312;-79
2022/04/29 12:55:16;;;;;;;;;24.50;22.00;;;;;;;;5052799;28;45639;-84
2022/04/29 12:57:42;;;;;;;;;21.67;20.67;;;;;;;;5062601;28;45399;-79
2022/04/29 13:00:08;;;;;;;;;28.00;26.67;;;;;;;;5059491;28;45356;-80
2022/04/29 13:02:33;;;;;;;;;24.33;22.33;;;;;;;;5058792;28;46251;-81
2022/04/29 13:04:58;;;;;;;;;19.00;19.00;;;;;;;;5066969;28;45381;-79
2022/04/29 13:07:23;;;;;;;;;17.00;16.50;;;;;;;;5075992;28;45441;-79
2022/04/29 13:09:49;;;;;;;;;22.67;20.00;;;;;;;;5057662;28;46104;-81
2022/04/29 13:12:14;;;;;;;;;22.67;20.67;;;;;;;;5052607;28;46502;-78
2022/04/29 13:14:39;;;;;;;;;21.25;20.50;;;;;;;;5058909;28;45475;-78
2022/04/29 13:17:04;;;;;;;;;20.50;19.00;;;;;;;;5053748;28;45642;-78
2022/04/29 13:19:29;;;;;;;;;20.00;18.25;;;;;;;;5060733;28;46300;-77
2022/04/29 13:21:55;;;;;;;;;22.50;21.00;;;;;;;;5055319;28;45178;-79
2022/04/29 13:24:21;;;;;;;;;16.25;16.25;;;;;;;;5091650;27;45235;-80
2022/04/29 13:26:46;;;;;;;;;15.50;13.50;;;;;;;;5056300;28;45355;-79
2022/04/29 13:29:14;;;;;;;;;16.75;16.75;;;;;;;;5092024;27;46138;-78
2022/04/29 13:31:40;;;;;;;;;19.50;19.00;;;;;;;;5055405;28;45451;-78
2022/04/29 13:34:05;;;;;;;;;17.25;16.00;;;;;;;;5062507;28;45394;-79
2022/04/29 13:36:30;;;;;;;;;19.00;19.00;;;;;;;;5055082;28;45383;-76
2022/04/29 13:38:56;;;;;;;;;13.50;13.50;;;;;;;;5060522;28;45426;-77
2022/04/29 13:41:21;;;;;;;;;16.00;14.75;;;;;;;;5052977;28;47364;-77
2022/04/29 13:43:46;;;;;;;;;18.00;16.75;;;;;;;;5093215;27;45177;-82
2022/04/29 13:46:12;;;;;;;;;15.75;14.50;;;;;;;;5050454;28;45353;-80
2022/04/29 13:48:37;;;;;;;;;15.00;15.00;;;;;;;;5072378;28;46429;-80
2022/04/29 13:51:03;;;;;;;;;19.75;16.50;;;;;;;;5049445;28;47180;-79
2022/04/29 13:53:28;;;;;;;;;15.25;15.25;;;;;;;;5058220;28;45209;-83
2022/04/29 13:55:54;;;;;;;;;16.75;15.00;;;;;;;;5057224;28;45352;-82
2022/04/29 13:58:22;;;;;;;;;19.75;17.00;;;;;;;;5079019;28;45493;-80
2022/04/29 14:00:49;;;;;;;;;16.75;15.75;;;;;;;;5059117;28;47555;-81
2022/04/29 14:03:18;;;;;;;;;18.00;16.50;;;;;;;;5078839;27;45582;-80
2022/04/29 14:05:43;;;;;;;;;20.00;18.50;;;;;;;;5056031;28;45361;-79
2022/04/29 14:08:09;;;;;;;;;19.00;17.00;;;;;;;;5060547;28;45398;-78
2022/04/29 14:10:35;;;;;;;;;16.25;14.50;;;;;;;;5054811;28;46052;-82
2022/04/29 14:13:00;;;;;;;;;14.50;14.00;;;;;;;;5057961;28;45372;-79
2022/04/29 14:15:26;;;;;;;;;16.50;15.50;;;;;;;;5059259;28;45339;-82
2022/04/29 14:17:51;;;;;;;;;15.75;13.25;;;;;;;;5060414;28;45350;-81
2022/04/29 14:20:16;;;;;;;;;14.75;13.25;;;;;;;;5059302;28;45366;-78
2022/04/29 14:22:42;;;;;;;;;17.00;15.75;;;;;;;;5060280;28;45320;-82
2022/04/29 14:25:08;;;;;;;;;17.50;16.75;;;;;;;;5060502;28;45311;-79
2022/04/29 14:27:34;;;;;;;;;15.75;13.00;;;;;;;;5060381;28;45440;-80
2022/04/29 14:29:59;;;;;;;;;19.00;17.00;;;;;;;;5059420;28;45378;-79
2022/04/29 14:32:25;;;;;;;;;19.50;18.00;;;;;;;;5057194;28;45350;-83
2022/04/29 14:34:50;;;;;;;;;24.50;21.50;;;;;;;;5059071;28;45470;-83
2022/04/29 14:37:16;;;;;;;;;24.75;20.75;;;;;;;;5063696;28;45440;-80